createdAt,value
2018-09-23T00:01:17.874Z,99.90
2018-09-23T00:03:45.387Z,99.90
2018-09-23T00:06:12.882Z,99.90
2018-09-23T00:08:40.736Z,99.90
2018-09-23T00:11:08.575Z,99.90
2018-09-23T00:13:36.087Z,99.90
2018-09-23T00:16:04.194Z,99.90
2018-09-23T00:18:31.703Z,99.90
2018-09-23T00:20:59.213Z,99.90
2018-09-23T00:23:26.751Z,99.90
2018-09-23T00:25:54.378Z,99.90
2018-09-23T00:28:22.537Z,99.90
2018-09-23T00:30:51.205Z,99.90
2018-09-23T00:33:18.711Z,99.90
2018-09-23T00:35:46.218Z,99.90
2018-09-23T00:38:13.776Z,99.90
2018-09-23T00:40:41.290Z,99.90
2018-09-23T00:43:09.176Z,99.90
2018-09-23T00:45:36.755Z,99.90
2018-09-23T00:48:05.408Z,99.90
2018-09-23T00:50:32.914Z,99.90
2018-09-23T00:53:02.387Z,99.90
2018-09-23T00:55:29.898Z,99.90
2018-09-23T00:57:57.428Z,99.90
2018-09-23T01:00:25.403Z,99.90
2018-09-23T01:02:53.571Z,99.90
2018-09-23T01:05:21.077Z,99.90
2018-09-23T01:07:49.011Z,99.90
2018-09-23T01:10:16.648Z,99.90
2018-09-23T01:12:44.723Z,99.90
2018-09-23T01:15:13.448Z,99.90
2018-09-23T01:17:41.060Z,99.90
2018-09-23T01:20:08.601Z,99.90
2018-09-23T01:22:36.148Z,99.90
2018-09-23T01:25:03.980Z,99.90
2018-09-23T01:27:31.573Z,99.90
2018-09-23T01:29:59.732Z,99.90
2018-09-23T01:32:27.240Z,99.90
2018-09-23T01:34:55.004Z,99.90
2018-09-23T01:37:22.512Z,99.90
2018-09-23T01:39:50.024Z,99.90
2018-09-23T01:42:17.984Z,99.90
2018-09-23T01:44:45.885Z,99.90
2018-09-23T01:47:13.805Z,99.90
2018-09-23T01:49:41.821Z,99.90
2018-09-23T01:52:09.318Z,99.90
2018-09-23T01:54:36.823Z,99.90
2018-09-23T01:57:04.402Z,99.90
2018-09-23T01:59:32.952Z,99.90
2018-09-23T02:02:01.037Z,99.90
2018-09-23T02:04:29.268Z,99.90
2018-09-23T02:06:57.237Z,99.90
2018-09-23T02:09:24.757Z,99.90
2018-09-23T02:11:52.672Z,99.90
2018-09-23T02:14:20.188Z,99.90
2018-09-23T02:16:47.812Z,99.90
2018-09-23T02:19:15.364Z,99.90
2018-09-23T02:21:42.866Z,99.90
2018-09-23T02:24:10.472Z,99.90
2018-09-23T02:26:38.047Z,99.90
2018-09-23T02:29:06.598Z,99.90
2018-09-23T02:31:34.125Z,99.90
2018-09-23T02:34:01.624Z,99.90
2018-09-23T02:36:29.868Z,99.90
2018-09-23T02:38:57.408Z,99.90
2018-09-23T02:41:25.042Z,99.90
2018-09-23T02:43:53.262Z,99.90
2018-09-23T02:46:20.759Z,99.90
2018-09-23T02:48:48.956Z,99.90
2018-09-23T02:51:16.636Z,99.90
2018-09-23T02:53:44.180Z,99.90
2018-09-23T02:56:11.705Z,99.90
2018-09-23T02:58:39.218Z,99.90
2018-09-23T03:01:07.172Z,99.90
2018-09-23T03:03:35.348Z,99.90
2018-09-23T03:06:02.927Z,99.90
2018-09-23T03:08:30.823Z,99.90
2018-09-23T03:10:58.780Z,99.90
2018-09-23T03:13:26.319Z,99.90
2018-09-23T03:15:53.838Z,99.90
2018-09-23T03:18:21.532Z,99.90
2018-09-23T03:20:49.037Z,99.90
2018-09-23T03:23:16.620Z,99.90
2018-09-23T03:25:44.143Z,99.90
2018-09-23T03:28:11.644Z,99.90
2018-09-23T03:30:40.021Z,99.90
2018-09-23T03:33:07.556Z,99.90
2018-09-23T03:35:35.124Z,99.90
2018-09-23T03:38:02.759Z,99.90
2018-09-23T03:40:30.684Z,99.90
2018-09-23T03:42:59.456Z,99.90
2018-09-23T03:45:27.357Z,99.90
2018-09-23T03:47:56.269Z,99.90
2018-09-23T03:50:23.956Z,99.90
2018-09-23T03:52:51.482Z,99.90
2018-09-23T03:55:19.057Z,99.90
2018-09-23T03:59:16.139Z,99.90
2018-09-23T04:01:44.935Z,99.90
2018-09-23T04:04:12.459Z,99.90
2018-09-23T04:06:40.473Z,99.90
2018-09-23T04:09:08.831Z,99.90
2018-09-23T04:11:37.023Z,99.90
2018-09-23T04:14:04.538Z,99.90
2018-09-23T04:16:32.039Z,99.90
2018-09-23T04:18:59.583Z,99.90
2018-09-23T04:21:27.130Z,99.90
2018-09-23T04:23:54.692Z,99.90
2018-09-23T04:26:22.297Z,99.90
2018-09-23T04:28:50.208Z,99.90
2018-09-23T04:31:17.710Z,99.90
2018-09-23T04:33:45.237Z,99.90
2018-09-23T04:36:12.757Z,99.90
2018-09-23T04:38:40.272Z,99.90
2018-09-23T04:41:08.495Z,99.90
2018-09-23T04:43:36.576Z,99.90
2018-09-23T04:46:04.641Z,99.90
2018-09-23T04:48:32.447Z,99.90
2018-09-23T04:50:59.996Z,99.90
2018-09-23T04:53:27.566Z,99.90
2018-09-23T04:55:55.098Z,99.90
2018-09-23T04:58:22.640Z,99.90
2018-09-23T05:00:50.288Z,99.90
2018-09-23T05:03:18.656Z,99.90
2018-09-23T05:05:46.668Z,99.90
2018-09-23T05:08:14.469Z,99.90
2018-09-23T05:10:42.493Z,99.90
2018-09-23T05:13:10.520Z,99.90
2018-09-23T05:15:38.013Z,99.90
2018-09-23T05:18:06.602Z,99.90
2018-09-23T05:20:34.208Z,99.90
2018-09-23T05:23:01.773Z,99.90
2018-09-23T05:25:29.370Z,99.90
2018-09-23T05:27:57.360Z,99.90
2018-09-23T05:30:25.476Z,99.90
2018-09-23T05:32:52.989Z,99.90
2018-09-23T05:35:20.519Z,99.90
2018-09-23T05:37:48.056Z,99.90
2018-09-23T05:40:16.293Z,99.90
2018-09-23T05:42:44.197Z,99.90
2018-09-23T05:45:11.712Z,99.90
2018-09-23T05:47:40.417Z,99.90
2018-09-23T05:50:07.973Z,99.90
2018-09-23T05:52:35.509Z,99.90
2018-09-23T05:55:03.080Z,99.90
2018-09-23T05:57:30.602Z,99.90
2018-09-23T05:59:59.080Z,99.90
2018-09-23T06:02:27.512Z,99.90
2018-09-23T06:04:55.120Z,99.90
2018-09-23T06:07:23.029Z,99.90
2018-09-23T06:09:50.580Z,99.90
2018-09-23T06:12:18.600Z,99.90
2018-09-23T06:14:46.432Z,99.90
2018-09-23T06:17:14.224Z,99.90
2018-09-23T06:19:41.740Z,99.90
2018-09-23T06:22:09.254Z,99.90
2018-09-23T06:24:36.776Z,99.90
2018-09-23T06:27:04.485Z,99.90
2018-09-23T06:29:32.623Z,99.90
2018-09-23T06:32:00.174Z,99.90
2018-09-23T06:34:27.702Z,99.90
2018-09-23T06:36:55.259Z,99.90
2018-09-23T06:39:23.227Z,99.90
2018-09-23T06:41:50.743Z,99.90
2018-09-23T06:44:19.078Z,99.90
2018-09-23T06:46:46.628Z,99.90
2018-09-23T06:49:14.718Z,99.90
2018-09-23T06:51:42.252Z,99.90
2018-09-23T06:54:09.794Z,99.90
2018-09-23T06:56:37.355Z,99.90
2018-09-23T06:59:05.130Z,99.90
2018-09-23T07:01:33.101Z,99.90
2018-09-23T07:04:01.099Z,99.90
2018-09-23T07:06:29.367Z,99.90
2018-09-23T07:08:58.253Z,99.90
2018-09-23T07:11:26.030Z,99.90
2018-09-23T07:13:53.568Z,99.90
2018-09-23T07:16:21.078Z,99.90
2018-09-23T07:18:48.675Z,99.90
2018-09-23T07:21:16.172Z,99.90
2018-09-23T07:23:44.511Z,99.90
2018-09-23T07:26:12.051Z,99.90
2018-09-23T07:28:39.904Z,99.90
2018-09-23T07:31:07.506Z,99.90
2018-09-23T07:33:35.020Z,99.90
2018-09-23T07:37:06.699Z,99.90
2018-09-23T07:39:34.263Z,99.90
2018-09-23T07:42:01.744Z,99.90
2018-09-23T07:44:29.397Z,99.90
2018-09-23T07:46:58.142Z,99.90
2018-09-23T07:49:25.687Z,99.90
2018-09-23T07:51:53.309Z,99.90
2018-09-23T07:54:21.109Z,99.90
2018-09-23T07:56:49.231Z,99.90
2018-09-23T07:59:17.882Z,99.90
2018-09-23T08:01:46.281Z,98.60
2018-09-23T08:04:13.801Z,99.50
2018-09-23T08:06:42.047Z,98.50
2018-09-23T08:09:10.275Z,96.30
2018-09-23T08:11:38.873Z,96.50
2018-09-23T08:14:07.539Z,94.70
2018-09-23T08:16:34.789Z,96.10
2018-09-23T08:19:02.965Z,96.10
2018-09-23T08:21:30.778Z,92.90
2018-09-23T08:23:58.702Z,92.90
2018-09-23T08:26:27.602Z,92.10
2018-09-23T08:28:55.541Z,92.30
2018-09-23T08:31:23.074Z,91.80
2018-09-23T08:33:51.555Z,91.70
2018-09-23T08:36:19.094Z,91.70
2018-09-23T08:38:47.266Z,91.50
2018-09-23T08:41:14.907Z,91.50
2018-09-23T08:43:42.427Z,90.80
2018-09-23T08:46:10.095Z,87.90
2018-09-23T08:48:38.220Z,87.60
2018-09-23T08:51:05.773Z,88.10
2018-09-23T08:53:34.007Z,86.80
2018-09-23T08:56:01.859Z,84.10
2018-09-23T08:58:29.389Z,85.50
2018-09-23T09:00:57.035Z,84.80
2018-09-23T09:03:25.723Z,84.90
2018-09-23T09:05:54.235Z,85.30
2018-09-23T09:08:22.111Z,85.10
2018-09-23T09:10:50.775Z,85.10
2018-09-23T09:13:18.368Z,85.30
2018-09-23T09:15:45.891Z,85.10
2018-09-23T09:18:13.510Z,85.30
2018-09-23T09:20:41.046Z,86.40
2018-09-23T09:23:09.298Z,84.80
2018-09-23T09:25:37.469Z,85.60
2018-09-23T09:28:05.337Z,84.70
2018-09-23T09:30:34.258Z,84.30
2018-09-23T09:33:01.830Z,84.00
2018-09-23T09:35:29.704Z,83.80
2018-09-23T09:37:57.220Z,84.40
2018-09-23T09:40:24.768Z,83.80
2018-09-23T09:42:52.328Z,83.80
2018-09-23T09:45:20.003Z,83.50
2018-09-23T09:47:48.482Z,83.30
2018-09-23T09:50:16.515Z,81.80
2018-09-23T09:52:44.567Z,81.90
2018-09-23T09:55:12.122Z,81.20
2018-09-23T09:57:39.816Z,82.20
2018-09-23T10:00:07.679Z,82.50
2018-09-23T10:02:35.813Z,81.60
2018-09-23T10:05:03.936Z,80.40
2018-09-23T10:14:19.306Z,80.30
2018-09-23T10:16:46.861Z,81.40
2018-09-23T10:19:14.583Z,80.80
2018-09-23T10:21:42.536Z,80.90
2018-09-23T10:24:10.721Z,80.40
2018-09-23T10:26:38.567Z,79.50
2018-09-23T10:29:06.463Z,78.80
2018-09-23T10:31:34.040Z,77.60
2018-09-23T10:34:01.686Z,76.90
2018-09-23T10:36:29.775Z,77.00
2018-09-23T10:38:57.293Z,77.20
2018-09-23T10:41:24.865Z,76.50
2018-09-23T10:43:52.416Z,76.50
2018-09-23T10:46:20.451Z,76.90
2018-09-23T10:48:49.072Z,76.40
2018-09-23T10:51:17.429Z,77.10
2018-09-23T10:53:44.995Z,75.40
2018-09-23T10:56:12.501Z,75.00
2018-09-23T10:58:40.221Z,75.80
2018-09-23T11:01:08.136Z,76.10
2018-09-23T11:03:36.615Z,76.60
2018-09-23T11:06:04.134Z,76.40
2018-09-23T11:08:31.989Z,74.80
2018-09-23T11:11:00.933Z,73.70
2018-09-23T11:13:28.534Z,74.20
2018-09-23T11:15:56.098Z,73.70
2018-09-23T11:18:23.665Z,73.70
2018-09-23T11:20:52.814Z,74.60
2018-09-23T11:23:20.976Z,73.40
2018-09-23T11:25:48.904Z,74.70
2018-09-23T11:28:18.306Z,73.70
2018-09-23T11:30:45.948Z,73.70
2018-09-23T11:33:13.516Z,71.20
2018-09-23T11:35:41.439Z,69.00
2018-09-23T11:38:08.973Z,70.80
2018-09-23T11:40:37.184Z,70.30
2018-09-23T11:43:04.742Z,70.50
2018-09-23T11:45:32.718Z,70.00
2018-09-23T11:48:00.866Z,69.80
2018-09-23T11:50:28.594Z,69.50
2018-09-23T11:52:56.168Z,70.00
2018-09-23T11:55:23.797Z,68.80
2018-09-23T11:57:52.040Z,70.60
2018-09-23T12:00:20.191Z,70.40
2018-09-23T12:02:47.748Z,69.90
2018-09-23T12:05:15.693Z,69.60
2018-09-23T12:07:43.680Z,69.20
2018-09-23T12:10:11.220Z,69.40
2018-09-23T12:12:39.046Z,69.50
2018-09-23T12:15:06.994Z,68.80
2018-09-23T12:17:34.509Z,70.20
2018-09-23T12:20:02.078Z,69.20
2018-09-23T12:22:30.150Z,68.70
2018-09-23T12:24:58.042Z,69.90
2018-09-23T12:27:25.525Z,68.10
2018-09-23T12:29:53.477Z,67.40
2018-09-23T12:32:21.000Z,67.50
2018-09-23T12:34:48.678Z,68.50
2018-09-23T12:37:17.106Z,67.70
2018-09-23T12:39:45.162Z,68.20
2018-09-23T12:42:13.946Z,68.40
2018-09-23T12:44:41.856Z,69.10
2018-09-23T12:47:09.744Z,69.20
2018-09-23T12:49:37.815Z,68.60
2018-09-23T12:52:05.845Z,68.80
2018-09-23T12:54:33.375Z,68.60
2018-09-23T12:57:01.623Z,68.70
2018-09-23T12:59:29.226Z,67.90
2018-09-23T13:01:56.760Z,68.80
2018-09-23T13:04:25.098Z,68.90
2018-09-23T13:06:53.245Z,68.10
2018-09-23T13:09:20.869Z,67.50
2018-09-23T13:11:48.780Z,67.60
2018-09-23T13:14:16.371Z,66.90
2018-09-23T13:16:43.893Z,66.90
2018-09-23T13:19:11.711Z,66.30
2018-09-23T13:21:40.034Z,67.60
2018-09-23T13:24:08.269Z,67.20
2018-09-23T13:26:36.518Z,66.80
2018-09-23T13:29:04.905Z,67.80
2018-09-23T13:31:32.432Z,68.10
2018-09-23T13:33:59.975Z,67.60
2018-09-23T13:36:27.839Z,67.50
2018-09-23T13:38:55.857Z,67.20
2018-09-23T13:41:23.779Z,66.90
2018-09-23T13:43:51.970Z,66.50
2018-09-23T13:46:20.095Z,66.90
2018-09-23T13:48:47.986Z,66.50
2018-09-23T13:51:15.536Z,66.70
2018-09-23T13:53:43.109Z,66.90
2018-09-23T13:56:10.962Z,66.90
2018-09-23T13:58:38.509Z,67.00
2018-09-23T14:01:06.114Z,68.30
2018-09-23T14:03:35.437Z,68.70
2018-09-23T14:06:04.009Z,69.00
2018-09-23T14:08:31.913Z,69.10
2018-09-23T14:11:00.638Z,68.20
2018-09-23T14:13:28.605Z,69.00
2018-09-23T14:15:56.256Z,69.80
2018-09-23T14:18:23.813Z,69.80
2018-09-23T14:20:51.844Z,69.90
2018-09-23T14:23:19.390Z,69.10
2018-09-23T14:25:46.952Z,69.90
2018-09-23T14:28:14.876Z,68.60
2018-09-23T14:30:42.424Z,65.10
2018-09-23T14:33:09.983Z,64.00
2018-09-23T14:35:38.046Z,65.50
2018-09-23T14:38:06.200Z,66.40
2018-09-23T14:40:34.063Z,64.70
2018-09-23T14:43:01.877Z,66.70
2018-09-23T14:45:29.383Z,66.90
2018-09-23T14:47:57.469Z,67.10
2018-09-23T14:50:24.979Z,68.20
2018-09-23T14:52:52.821Z,69.00
2018-09-23T14:55:20.342Z,69.60
2018-09-23T14:57:47.946Z,69.70
2018-09-23T15:00:15.716Z,69.40
2018-09-23T15:02:43.299Z,69.60
2018-09-23T15:05:11.944Z,69.60
2018-09-23T15:07:39.791Z,69.80
2018-09-23T15:10:07.349Z,70.50
2018-09-23T15:12:35.407Z,71.20
2018-09-23T15:15:03.036Z,71.90
2018-09-23T15:17:31.700Z,72.70
2018-09-23T15:19:59.300Z,73.30
2018-09-23T15:22:26.814Z,72.70
2018-09-23T15:24:54.356Z,73.00
2018-09-23T15:27:21.901Z,73.80
2018-09-23T15:29:50.149Z,75.50
2018-09-23T15:32:18.152Z,75.10
2018-09-23T15:34:46.248Z,76.00
2018-09-23T15:37:14.396Z,76.50
2018-09-23T15:39:42.440Z,77.50
2018-09-23T15:42:10.967Z,77.10
2018-09-23T15:44:38.508Z,77.60
2018-09-23T15:47:06.417Z,77.80
2018-09-23T15:49:34.087Z,77.60
2018-09-23T15:52:01.678Z,76.80
2018-09-23T15:54:29.319Z,78.00
2018-09-23T15:56:57.348Z,77.70
2018-09-23T15:59:25.521Z,80.30
2018-09-23T16:01:53.080Z,77.80
2018-09-23T16:04:21.334Z,78.00
2018-09-23T16:06:50.740Z,77.90
2018-09-23T16:09:18.260Z,78.00
2018-09-23T16:11:46.404Z,78.60
2018-09-23T16:14:14.300Z,78.60
2018-09-23T16:16:42.086Z,78.70
2018-09-23T16:19:09.672Z,78.50
2018-09-23T16:21:37.188Z,78.50
2018-09-23T16:24:05.052Z,78.50
2018-09-23T16:26:32.853Z,79.00
2018-09-23T16:29:01.306Z,78.50
2018-09-23T16:31:29.391Z,79.00
2018-09-23T16:33:57.377Z,78.80
2018-09-23T16:36:25.732Z,78.50
2018-09-23T16:38:53.335Z,78.40
2018-09-23T16:41:20.895Z,78.70
2018-09-23T16:43:49.751Z,78.90
2018-09-23T16:46:17.348Z,79.10
2018-09-23T16:48:45.779Z,79.30
2018-09-23T16:51:13.308Z,79.60
2018-09-23T16:53:41.417Z,79.60
2018-09-23T16:56:09.044Z,79.80
2018-09-23T16:58:36.592Z,80.40
2018-09-23T17:01:04.353Z,80.20
2018-09-23T17:03:33.012Z,80.20
2018-09-23T17:06:01.461Z,80.20
2018-09-23T17:08:29.490Z,80.30
2018-09-23T17:10:57.788Z,80.40
2018-09-23T17:13:25.753Z,80.70
2018-09-23T17:15:53.312Z,80.70
2018-09-23T17:18:20.824Z,81.10
2018-09-23T17:20:48.383Z,81.80
2018-09-23T17:23:15.895Z,81.30
2018-09-23T17:25:44.084Z,81.30
2018-09-23T17:28:13.512Z,81.70
2018-09-23T17:30:40.993Z,82.20
2018-09-23T17:33:09.067Z,84.50
2018-09-23T17:35:37.657Z,83.50
2018-09-23T17:38:05.816Z,83.30
2018-09-23T17:40:33.754Z,83.80
2018-09-23T17:43:02.565Z,85.40
2018-09-23T17:45:30.095Z,84.20
2018-09-23T17:47:59.242Z,84.80
2018-09-23T17:50:26.775Z,84.80
2018-09-23T17:52:54.566Z,84.80
2018-09-23T17:55:22.206Z,84.80
2018-09-23T17:57:50.392Z,87.30
2018-09-23T18:00:18.129Z,86.00
2018-09-23T18:02:45.681Z,86.40
2018-09-23T18:05:13.589Z,86.60
2018-09-23T18:07:41.506Z,86.60
2018-09-23T18:10:09.548Z,87.20
2018-09-23T18:12:37.381Z,87.90
2018-09-23T18:15:05.379Z,89.10
2018-09-23T18:17:33.023Z,90.60
2018-09-23T18:20:01.300Z,92.10
2018-09-23T18:22:28.896Z,93.10
2018-09-23T18:24:57.727Z,96.60
2018-09-23T18:27:25.796Z,94.20
2018-09-23T18:29:53.901Z,93.20
2018-09-23T18:32:21.742Z,95.00
2018-09-23T18:34:49.308Z,95.80
2018-09-23T18:37:17.283Z,95.20
2018-09-23T18:39:44.711Z,95.80
2018-09-23T18:42:12.605Z,95.50
2018-09-23T18:44:40.971Z,96.30
2018-09-23T18:47:09.104Z,96.70
2018-09-23T18:49:36.632Z,95.70
2018-09-23T18:52:04.188Z,95.50
2018-09-23T18:54:37.525Z,94.70
2018-09-23T18:57:05.241Z,94.10
2018-09-23T18:59:32.831Z,94.20
2018-09-23T19:02:00.391Z,95.00
2018-09-23T19:04:28.581Z,94.50
2018-09-23T19:06:56.580Z,94.30
2018-09-23T19:09:24.109Z,96.40
2018-09-23T19:11:51.992Z,94.80
2018-09-23T19:14:19.501Z,95.10
2018-09-23T19:16:47.045Z,95.20
2018-09-23T19:19:14.615Z,96.40
2018-09-23T19:21:42.264Z,96.00
2018-09-23T19:24:10.412Z,96.50
2018-09-23T19:26:38.324Z,96.60
2018-09-23T19:29:07.437Z,97.90
2018-09-23T19:31:35.034Z,96.60
2018-09-23T19:34:02.662Z,96.60
2018-09-23T19:36:30.911Z,96.20
2018-09-23T19:38:58.429Z,96.30
2018-09-23T19:41:27.268Z,96.10
2018-09-23T19:43:55.343Z,96.00
2018-09-23T19:46:22.896Z,96.00
2018-09-23T19:48:50.752Z,96.00
2018-09-23T19:51:18.300Z,95.90
2018-09-23T19:53:45.828Z,95.50
2018-09-23T19:56:13.338Z,96.60
2018-09-23T19:58:40.960Z,97.30
2018-09-23T20:01:08.710Z,97.40
2018-09-23T20:03:36.951Z,98.00
2018-09-23T20:06:05.374Z,98.50
2018-09-23T20:08:33.336Z,98.90
2018-09-23T20:11:01.909Z,98.40
2018-09-23T20:13:29.465Z,98.50
2018-09-23T20:15:57.493Z,94.20
2018-09-23T20:18:25.615Z,94.00
2018-09-23T20:20:55.805Z,99.90
2018-09-23T20:23:23.718Z,99.90
2018-09-23T20:25:52.106Z,99.90
2018-09-23T20:28:20.554Z,99.90
2018-09-23T20:30:48.400Z,99.90
2018-09-23T20:33:16.111Z,99.90
2018-09-23T20:35:44.104Z,99.90
2018-09-23T20:38:11.856Z,99.90
2018-09-23T20:40:39.370Z,99.90
2018-09-23T20:43:07.758Z,99.90
2018-09-23T20:45:36.088Z,99.90
2018-09-23T20:48:04.370Z,99.90
2018-09-23T20:50:32.006Z,99.90
2018-09-23T20:53:00.000Z,99.90
2018-09-23T20:55:27.685Z,99.90
2018-09-23T20:57:58.173Z,99.90
2018-09-23T21:00:25.825Z,99.90
2018-09-23T21:02:53.880Z,99.90
2018-09-23T21:05:22.144Z,99.90
2018-09-23T21:07:50.917Z,99.90
2018-09-23T21:10:19.460Z,99.90
2018-09-23T21:12:48.042Z,99.90
2018-09-23T21:15:15.846Z,99.90
2018-09-23T21:17:44.917Z,99.90
2018-09-23T21:20:12.804Z,99.90
2018-09-23T21:22:41.901Z,99.90
2018-09-23T21:25:10.069Z,99.90
2018-09-23T21:27:37.665Z,99.90
2018-09-23T21:30:07.449Z,99.90
2018-09-23T21:32:35.074Z,99.90
2018-09-23T21:35:04.073Z,99.90
2018-09-23T21:37:32.926Z,99.90
2018-09-23T21:40:00.524Z,99.90
2018-09-23T21:42:29.910Z,99.90
2018-09-23T21:44:58.844Z,99.90
2018-09-23T21:47:27.773Z,99.90
2018-09-23T21:49:56.829Z,99.90
2018-09-23T21:52:24.364Z,99.90
2018-09-23T21:54:52.250Z,99.90
2018-09-23T21:57:20.432Z,99.90
2018-09-23T21:59:48.608Z,99.90
2018-09-23T22:02:16.632Z,99.90
2018-09-23T22:04:44.838Z,99.90
2018-09-23T22:07:13.577Z,99.90
2018-09-23T22:09:41.154Z,99.90
2018-09-23T22:12:09.169Z,99.90
2018-09-23T22:14:36.966Z,99.90
2018-09-23T22:17:04.597Z,99.90
2018-09-23T22:19:32.898Z,99.90
2018-09-23T22:22:01.070Z,99.90
2018-09-23T22:24:29.626Z,99.90
2018-09-23T22:26:57.343Z,99.90
2018-09-23T22:29:25.357Z,99.90
2018-09-23T22:31:53.603Z,99.90
2018-09-23T22:34:21.189Z,99.90
2018-09-23T22:36:49.060Z,99.90
2018-09-23T22:39:16.689Z,99.90
2018-09-23T22:41:44.229Z,99.90
2018-09-23T22:44:12.643Z,99.90
2018-09-23T22:46:40.217Z,99.90
2018-09-23T22:49:08.645Z,99.90
2018-09-23T22:51:36.156Z,99.90
2018-09-23T22:54:04.093Z,99.90
2018-09-23T22:56:31.607Z,99.90
2018-09-23T22:58:59.512Z,99.90
2018-09-23T23:01:27.047Z,99.90
2018-09-23T23:03:55.884Z,99.90
2018-09-23T23:06:25.048Z,99.90
2018-09-23T23:08:54.322Z,99.90
2018-09-23T23:11:22.338Z,99.90
2018-09-23T23:13:50.325Z,99.90
2018-09-23T23:16:18.893Z,99.90
2018-09-23T23:18:48.287Z,99.90
2018-09-23T23:21:17.205Z,99.90
2018-09-23T23:23:45.396Z,99.90
2018-09-23T23:26:13.352Z,99.90
2018-09-23T23:28:41.543Z,99.90
2018-09-23T23:31:09.076Z,99.90
2018-09-23T23:33:36.577Z,99.90
2018-09-23T23:36:04.546Z,97.90
2018-09-23T23:38:32.053Z,98.40
2018-09-23T23:41:00.258Z,94.60
2018-09-23T23:43:27.860Z,95.90
2018-09-23T23:45:55.456Z,99.90
2018-09-23T23:48:24.525Z,99.90
2018-09-23T23:50:52.734Z,99.90
2018-09-23T23:53:20.276Z,99.90
2018-09-23T23:55:48.492Z,99.90
2018-09-23T23:58:16.097Z,99.90
